createdAt,value
2023-05-19T00:03:35.000Z,1.20
2023-05-19T00:08:38.279Z,1.20
2023-05-19T00:13:40.428Z,1.30
2023-05-19T00:18:43.291Z,1.40
2023-05-19T00:23:45.074Z,1.70
2023-05-19T00:28:46.845Z,1.33
2023-05-19T00:33:48.876Z,1.70
2023-05-19T00:38:51.308Z,1.50
2023-05-19T00:43:53.328Z,1.55
2023-05-19T00:48:55.139Z,1.40
2023-05-19T00:53:57.572Z,1.60
2023-05-19T00:58:59.820Z,1.75
2023-05-19T01:04:01.968Z,1.40
2023-05-19T01:09:04.155Z,1.52
2023-05-19T01:14:06.349Z,1.40
2023-05-19T01:19:20.966Z,1.60
2023-05-19T01:29:58.267Z,1.83
2023-05-19T01:35:02.591Z,1.70
2023-05-19T01:40:08.274Z,1.60
2023-05-19T01:45:10.666Z,1.50
2023-05-19T01:50:12.599Z,1.15
2023-05-19T01:55:14.575Z,1.70
2023-05-19T02:00:29.535Z,1.30
2023-05-19T02:06:03.322Z,1.75
2023-05-19T02:11:22.942Z,1.75
2023-05-19T02:16:28.740Z,1.52
2023-05-19T02:21:31.136Z,1.70
2023-05-19T02:26:32.924Z,1.40
2023-05-19T02:31:34.760Z,1.50
2023-05-19T02:36:36.711Z,1.52
2023-05-19T02:41:39.205Z,1.40
2023-05-19T02:46:41.390Z,1.50
2023-05-19T02:51:43.256Z,1.30
2023-05-19T02:56:45.339Z,0.95
2023-05-19T03:01:47.697Z,1.75
2023-05-19T03:06:50.179Z,1.77
2023-05-19T03:11:51.956Z,1.55
2023-05-19T03:16:53.906Z,1.83
2023-05-19T03:21:56.479Z,1.50
2023-05-19T03:26:58.235Z,1.75
2023-05-19T03:32:00.480Z,1.75
2023-05-19T03:37:02.417Z,1.70
2023-05-19T03:42:04.697Z,1.40
2023-05-19T03:47:07.071Z,1.77
2023-05-19T03:52:20.854Z,1.40
2023-05-19T03:57:34.234Z,2.58
2023-05-19T04:02:36.065Z,1.38
2023-05-19T04:07:38.066Z,1.80
2023-05-19T04:12:39.908Z,1.50
2023-05-19T04:17:42.012Z,2.00
2023-05-19T04:22:44.461Z,2.03
2023-05-19T04:27:46.251Z,1.73
2023-05-19T04:32:50.930Z,1.55
2023-05-19T04:37:55.819Z,1.90
2023-05-19T04:43:03.206Z,1.52
2023-05-19T04:48:07.857Z,1.65
2023-05-19T04:53:11.439Z,1.60
2023-05-19T04:58:13.956Z,2.00
2023-05-19T05:03:16.436Z,1.45
2023-05-19T05:08:23.223Z,1.73
2023-05-19T05:13:25.700Z,1.75
2023-05-19T05:18:28.557Z,1.77
2023-05-19T05:23:30.743Z,2.15
2023-05-19T05:28:32.897Z,2.42
2023-05-19T05:33:35.308Z,2.50
2023-05-19T05:38:37.368Z,2.15
2023-05-19T05:43:39.184Z,1.90
2023-05-19T05:48:42.690Z,2.08
2023-05-19T05:53:51.426Z,1.90
2023-05-19T05:58:53.807Z,1.95
2023-05-19T06:03:56.280Z,1.90
2023-05-19T06:08:59.350Z,1.60
2023-05-19T06:14:02.431Z,1.60
2023-05-19T06:19:25.308Z,1.70
2023-05-19T06:24:27.702Z,1.60
2023-05-19T06:29:29.632Z,1.45
2023-05-19T06:34:35.890Z,1.80
2023-05-19T06:39:38.260Z,1.58
2023-05-19T06:44:40.126Z,1.65
2023-05-19T06:49:46.747Z,1.52
2023-05-19T06:54:49.548Z,1.77
2023-05-19T06:59:51.997Z,2.03
2023-05-19T07:04:54.055Z,1.60
2023-05-19T07:09:56.990Z,1.67
2023-05-19T07:15:00.684Z,1.70
2023-05-19T07:20:06.753Z,1.80
2023-05-19T07:25:09.338Z,1.67
2023-05-19T07:30:12.418Z,1.67
2023-05-19T07:35:14.384Z,1.60
2023-05-19T07:40:16.173Z,1.50
2023-05-19T07:45:18.152Z,1.60
2023-05-19T07:50:20.454Z,1.70
2023-05-19T07:55:23.272Z,1.33
2023-05-19T08:00:25.298Z,1.85
2023-05-19T08:05:27.104Z,1.90
2023-05-19T08:10:29.000Z,1.60
2023-05-19T08:15:30.775Z,2.15
2023-05-19T08:20:32.968Z,1.40
2023-05-19T08:25:35.097Z,1.63
2023-05-19T08:30:36.986Z,1.80
2023-05-19T08:35:38.800Z,1.88
2023-05-19T08:40:46.611Z,1.63
2023-05-19T08:45:48.492Z,2.05
2023-05-19T08:51:20.566Z,1.83
2023-05-19T08:56:24.189Z,1.77
2023-05-19T09:01:28.893Z,1.50
2023-05-19T09:06:32.393Z,1.83
2023-05-19T09:11:35.773Z,1.58
2023-05-19T09:16:38.356Z,1.63
2023-05-19T09:21:40.221Z,1.70
2023-05-19T09:26:42.937Z,1.70
2023-05-19T09:31:52.285Z,1.60
2023-05-19T09:36:54.356Z,1.40
2023-05-19T09:41:58.651Z,1.85
2023-05-19T09:47:00.480Z,1.73
2023-05-19T09:52:05.946Z,1.63
2023-05-19T09:57:08.963Z,1.75
2023-05-19T10:02:21.348Z,2.00
2023-05-19T10:07:24.467Z,1.92
2023-05-19T10:12:27.164Z,1.77
2023-05-19T10:17:29.349Z,1.77
2023-05-19T10:22:31.227Z,1.60
2023-05-19T10:27:39.313Z,1.40
2023-05-19T10:32:44.437Z,1.35
2023-05-19T10:37:59.014Z,1.40
2023-05-19T10:43:30.938Z,1.40
2023-05-19T10:48:38.758Z,1.40
2023-05-19T10:53:46.828Z,2.10
2023-05-19T10:58:52.214Z,1.30
2023-05-19T11:03:57.346Z,1.20
2023-05-19T11:09:28.349Z,1.15
2023-05-19T11:14:36.310Z,1.20
2023-05-19T11:19:38.119Z,1.23
2023-05-19T11:24:53.384Z,1.27
2023-05-19T11:29:57.276Z,1.50
2023-05-19T11:35:00.185Z,1.10
2023-05-19T11:40:04.753Z,1.20
2023-05-19T11:45:08.071Z,1.25
2023-05-19T11:50:12.783Z,1.20
2023-05-19T11:55:22.210Z,1.23
2023-05-19T12:00:25.036Z,1.30
2023-05-19T12:05:28.755Z,1.33
2023-05-19T12:15:33.596Z,1.10
2023-05-19T12:20:36.303Z,1.33
2023-05-19T12:25:38.535Z,1.00
2023-05-19T12:30:41.410Z,1.20
2023-05-19T12:35:43.386Z,1.00
2023-05-19T12:40:45.357Z,1.10
2023-05-19T12:45:47.110Z,1.27
2023-05-19T12:50:51.286Z,1.58
2023-05-19T12:55:53.465Z,1.10
2023-05-19T13:00:59.794Z,1.10
2023-05-19T13:06:01.656Z,1.38
2023-05-19T13:11:03.496Z,1.30
2023-05-19T13:16:05.927Z,1.23
2023-05-19T13:21:08.058Z,1.40
2023-05-19T13:26:12.682Z,1.10
2023-05-19T13:31:14.609Z,1.60
2023-05-19T13:36:16.480Z,1.27
2023-05-19T13:41:26.190Z,1.23
2023-05-19T13:46:40.902Z,1.20
2023-05-19T13:51:46.942Z,1.10
2023-05-19T13:56:48.846Z,1.25
2023-05-19T14:01:50.683Z,1.30
2023-05-19T14:06:52.464Z,1.52
2023-05-19T14:11:54.217Z,1.42
2023-05-19T14:16:56.221Z,1.20
2023-05-19T14:21:57.983Z,1.20
2023-05-19T14:26:59.733Z,1.17
2023-05-19T14:32:02.826Z,1.30
2023-05-19T14:37:05.654Z,1.23
2023-05-19T14:42:07.455Z,1.33
2023-05-19T14:47:11.344Z,1.20
2023-05-19T14:52:13.328Z,1.40
2023-05-19T14:57:15.250Z,1.25
2023-05-19T15:02:17.201Z,1.10
2023-05-19T15:07:19.051Z,1.45
2023-05-19T15:12:20.824Z,1.20
2023-05-19T15:17:22.745Z,1.50
2023-05-19T15:22:24.578Z,1.30
2023-05-19T15:27:26.763Z,1.35
2023-05-19T15:32:28.581Z,1.27
2023-05-19T15:37:30.375Z,1.20
2023-05-19T15:42:32.222Z,1.52
2023-05-19T15:47:34.113Z,1.10
2023-05-19T15:52:36.306Z,1.80
2023-05-19T15:57:38.126Z,8.13
2023-05-19T16:02:40.798Z,1.17
2023-05-19T16:07:42.632Z,1.20
2023-05-19T16:12:44.398Z,1.33
2023-05-19T16:17:46.209Z,1.23
2023-05-19T16:22:47.969Z,1.40
2023-05-19T16:27:50.293Z,1.77
2023-05-19T16:32:54.353Z,1.23
2023-05-19T16:37:56.139Z,1.40
2023-05-19T16:42:57.975Z,1.40
2023-05-19T16:47:59.783Z,1.80
2023-05-19T16:53:01.616Z,1.35
2023-05-19T16:58:03.447Z,1.85
2023-05-19T17:03:05.634Z,1.50
2023-05-19T17:08:07.602Z,1.45
2023-05-19T17:13:09.563Z,2.03
2023-05-19T17:18:12.632Z,1.92
2023-05-19T17:23:14.599Z,1.50
2023-05-19T17:28:16.477Z,1.92
2023-05-19T17:33:18.442Z,1.95
2023-05-19T17:38:20.314Z,1.75
2023-05-19T17:43:22.062Z,2.03
2023-05-19T17:48:23.856Z,1.67
2023-05-19T17:53:26.224Z,1.80
2023-05-19T17:58:28.847Z,1.90
2023-05-19T18:03:30.987Z,2.17
2023-05-19T18:08:33.388Z,1.80
2023-05-19T18:13:35.621Z,1.92
2023-05-19T18:18:40.022Z,2.28
2023-05-19T18:23:41.848Z,2.00
2023-05-19T18:28:43.875Z,2.40
2023-05-19T18:33:47.101Z,3.80
2023-05-19T18:38:50.097Z,2.07
2023-05-19T18:43:51.908Z,2.55
2023-05-19T18:48:53.681Z,2.20
2023-05-19T18:53:55.602Z,2.00
2023-05-19T18:58:57.651Z,2.35
2023-05-19T19:03:59.716Z,2.47
2023-05-19T19:09:01.624Z,1.90
2023-05-19T19:14:03.772Z,1.85
2023-05-19T19:19:05.661Z,2.28
2023-05-19T19:24:07.710Z,2.00
2023-05-19T19:29:09.706Z,2.13
2023-05-19T19:34:11.698Z,2.20
2023-05-19T19:39:13.796Z,2.08
2023-05-19T19:44:15.699Z,2.03
2023-05-19T19:49:17.623Z,2.20
2023-05-19T19:54:19.559Z,2.17
2023-05-19T19:59:21.367Z,2.10
2023-05-19T20:04:23.249Z,2.13
2023-05-19T20:09:25.264Z,1.88
2023-05-19T20:14:27.118Z,2.30
2023-05-19T20:19:29.094Z,2.05
2023-05-19T20:24:30.982Z,2.30
2023-05-19T20:29:32.801Z,2.20
2023-05-19T20:34:34.593Z,2.45
2023-05-19T20:39:36.441Z,2.15
2023-05-19T20:44:38.257Z,2.35
2023-05-19T20:49:40.066Z,2.25
2023-05-19T20:54:42.170Z,2.22
2023-05-19T20:59:43.965Z,2.65
2023-05-19T21:04:46.307Z,2.40
2023-05-19T21:09:50.367Z,2.30
2023-05-19T21:14:52.190Z,2.15
2023-05-19T21:19:57.779Z,2.58
2023-05-19T21:24:59.731Z,2.55
2023-05-19T21:30:02.008Z,2.42
2023-05-19T21:35:04.516Z,2.75
2023-05-19T21:40:08.054Z,2.60
2023-05-19T21:45:10.521Z,2.53
2023-05-19T21:50:15.696Z,2.63
2023-05-19T21:55:17.541Z,2.88
2023-05-19T22:00:19.463Z,2.33
2023-05-19T22:05:21.945Z,2.85
2023-05-19T22:10:24.288Z,2.58
2023-05-19T22:15:26.719Z,2.60
2023-05-19T22:20:28.512Z,2.65
2023-05-19T22:25:30.717Z,2.90
2023-05-19T22:30:32.785Z,2.50
2023-05-19T22:35:34.652Z,3.30
2023-05-19T22:40:36.625Z,2.83
2023-05-19T22:45:38.832Z,3.78
2023-05-19T22:50:40.696Z,4.97
2023-05-19T22:55:42.571Z,4.63
2023-05-19T23:00:44.343Z,4.30
2023-05-19T23:05:46.119Z,3.40
2023-05-19T23:10:48.008Z,3.33
2023-05-19T23:15:49.789Z,3.30
2023-05-19T23:20:51.561Z,3.10
2023-05-19T23:25:53.325Z,3.40
2023-05-19T23:30:55.433Z,3.78
2023-05-19T23:35:59.036Z,3.45
2023-05-19T23:41:00.937Z,3.33
2023-05-19T23:46:02.867Z,3.55
2023-05-19T23:51:05.082Z,3.42
2023-05-19T23:56:07.360Z,3.53
